Riverton Regional Airport
KRIW : now visible

Airfield :











YOU CAN JOIN US ON...

 
LOGIN :

Register | Disclaimer

   EN    FR    IT 

 









Legend :    VFR   Marginal VFR   IFR   Intensive IFR   Very Intensive IFR
Visi :
Ceiling :
>= 8 km
>= 3000ft
5 to 8 km
1000 to 3000 ft
1500m to 5 km
500 to 1000 ft
800 to 1500m
200 to 500 ft
< 800m
< 200 ft
Symbols :   Thunderstorms  Fog  Heavy snow  Heavy precipitations  Wind > 20 kt






- Airport Elevation : 5525 ft


KRIW - Riverton Regional

CURRENT METAR :
  • 250553Z AUTO 31010KT 10SM CLR 21/M03 A3002 RMK AO2 SLP085 T02061028 10339 20206 51013

EXPIRED METARs :
  • 250453Z AUTO 30013KT 10SM CLR 23/M02 A3001 RMK AO2 SLP083 T02281022
  • 250353Z AUTO 30011KT 10SM CLR 24/M02 A3000 RMK AO2 SLP080 T02441022
  • 250253Z AUTO 31012KT 10SM CLR 27/M01 A2997 RMK AO2 SLP067 T02671006 53013
  • 250153Z AUTO 28015KT 10SM CLR 31/01 A2995 RMK AO2 PK WND 25027/0059 SLP056 T03060006

TAF KRIW
Valid from the 25 at 06:00 until the 26 at 06:00 UTC


250520Z 2506/2606 29012KT P6SM SKC
FM251600 01005KT P6SM SKC
FM252000 30014G24KT P6SM FEW140
FM260300 01015G25KT P6SM SCT120
KZLC FIR / North America



MET'MAP, your aeronautical weather chart ! - Copyright ORBIFLY December 2007 - Disclaimer

ORBIFLY MET'MAP TEAM :

Programming & Development : Alexandra Zaïnal
Original concept : Baudouin d'Aumeries
Technical & hardware support : Manuel Goepfert
Assistance : Marc-Olivier Méhu




SOURCES & CREDITS :

   NOAA       Earth
Advisory